Time;durP1;ratioP1;P1;durP2;ratioP2;P2;SDS_P1;SDS_P2;PMS_P1;PMS_P2;Temp;Humidity;BMP_temperature;BMP_pressure;BME280_temperature;BME280_humidity;BME280_pressure;Samples;Min_cycle;Max_cycle;Signal;HPM_P1;HPM_P2
2021/12/08 00:01:17;;;;;;;7.05;3.42;;;3.00;99.90;;;;;;4936623;28;20399;-64
2021/12/08 00:03:43;;;;;;;13.63;3.88;;;3.00;99.90;;;;;;4961061;28;20050;-64
2021/12/08 00:06:08;;;;;;;12.55;3.92;;;3.00;99.90;;;;;;4956848;28;20058;-64
2021/12/08 00:08:35;;;;;;;6.93;3.25;;;3.00;99.90;;;;;;4961773;28;20038;-64
2021/12/08 00:13:32;;;;;;;11.57;4.20;;;3.10;99.90;;;;;;4961991;28;20050;-64
2021/12/08 00:16:00;;;;;;;13.13;4.13;;;3.20;99.90;;;;;;4957748;28;20395;-64
2021/12/08 00:18:28;;;;;;;8.07;3.45;;;3.10;99.90;;;;;;4963551;28;20078;-64
2021/12/08 00:20:58;;;;;;;9.10;3.33;;;3.10;99.90;;;;;;4938388;28;20061;-65
2021/12/08 00:23:25;;;;;;;10.00;3.88;;;3.10;99.90;;;;;;4964777;28;20121;-65
2021/12/08 00:25:51;;;;;;;10.25;4.57;;;3.10;99.90;;;;;;4962250;28;20039;-65
2021/12/08 00:28:18;;;;;;;11.52;4.25;;;3.00;99.90;;;;;;4959739;28;20806;-65
2021/12/08 00:30:47;;;;;;;10.75;3.80;;;3.00;99.90;;;;;;4960015;28;20129;-65
2021/12/08 00:33:14;;;;;;;10.88;3.63;;;3.00;99.90;;;;;;4942411;28;20113;-65
2021/12/08 00:35:41;;;;;;;13.35;3.85;;;3.00;99.90;;;;;;4961470;28;20043;-65
2021/12/08 00:38:07;;;;;;;6.78;3.30;;;3.00;99.90;;;;;;4956068;28;20447;-65
2021/12/08 00:40:34;;;;;;;11.25;3.67;;;3.00;99.90;;;;;;4964403;28;20042;-65
2021/12/08 00:43:00;;;;;;;12.95;4.13;;;3.00;99.90;;;;;;4952730;28;20503;-65
2021/12/08 00:45:27;;;;;;;9.30;3.75;;;3.00;99.90;;;;;;4958385;28;20035;-65
2021/12/08 00:47:54;;;;;;;10.00;3.80;;;2.90;99.90;;;;;;4956665;28;20039;-65
2021/12/08 00:50:24;;;;;;;11.57;3.83;;;3.00;99.90;;;;;;4966333;28;20035;-65
2021/12/08 00:52:51;;;;;;;8.80;3.50;;;3.00;99.90;;;;;;4941151;28;20077;-65
2021/12/08 00:55:18;;;;;;;9.35;3.63;;;3.10;99.90;;;;;;4965246;28;20046;-65
2021/12/08 00:57:44;;;;;;;8.60;3.60;;;3.00;99.90;;;;;;4956575;28;20483;-65
2021/12/08 01:00:18;;;;;;;12.02;4.13;;;3.10;99.90;;;;;;4963383;28;20038;-65
2021/12/08 01:02:44;;;;;;;8.20;4.03;;;3.10;99.90;;;;;;4937717;28;20043;-65
2021/12/08 01:05:12;;;;;;;6.72;3.92;;;3.10;99.90;;;;;;4963127;28;20101;-65
2021/12/08 01:07:38;;;;;;;8.90;3.97;;;3.10;99.90;;;;;;4952437;28;20035;-65
2021/12/08 01:10:07;;;;;;;9.00;3.50;;;3.10;99.90;;;;;;4974875;28;20042;-65
2021/12/08 01:12:33;;;;;;;9.02;4.07;;;3.20;99.90;;;;;;4978547;28;20459;-66
2021/12/08 01:14:59;;;;;;;14.63;4.50;;;3.20;99.90;;;;;;4968537;28;20027;-65
2021/12/08 01:17:24;;;;;;;15.30;4.10;;;3.20;99.90;;;;;;4976112;28;20035;-65
2021/12/08 01:19:50;;;;;;;8.02;3.60;;;3.20;99.90;;;;;;4954331;28;20117;-65
2021/12/08 01:22:16;;;;;;;10.63;3.38;;;3.30;99.90;;;;;;4960990;28;20572;-65
2021/12/08 01:24:42;;;;;;;11.57;3.65;;;3.30;99.90;;;;;;4954602;28;20126;-65
2021/12/08 01:27:07;;;;;;;13.02;3.80;;;3.30;99.90;;;;;;4961148;28;20031;-65
2021/12/08 01:29:33;;;;;;;13.90;3.38;;;3.40;99.90;;;;;;4957440;28;20116;-65
2021/12/08 01:31:59;;;;;;;8.88;2.83;;;3.40;99.90;;;;;;4957839;28;20035;-65
2021/12/08 01:34:25;;;;;;;4.90;2.90;;;3.40;99.90;;;;;;4955805;28;20125;-65
2021/12/08 01:36:50;;;;;;;8.82;4.18;;;3.40;99.90;;;;;;4960056;28;20423;-65
2021/12/08 01:39:16;;;;;;;5.90;3.17;;;3.40;99.90;;;;;;4956040;28;20121;-65
2021/12/08 01:41:42;;;;;;;7.40;3.28;;;3.50;99.90;;;;;;4962700;28;20455;-65
2021/12/08 01:46:54;;;;;;;6.90;3.57;;;3.60;99.90;;;;;;4965469;28;20137;-65
2021/12/08 01:49:20;;;;;;;9.57;3.42;;;3.60;99.90;;;;;;4955247;28;20042;-65
2021/12/08 01:51:45;;;;;;;9.38;3.45;;;3.60;99.90;;;;;;4958232;28;20042;-65
2021/12/08 01:54:11;;;;;;;6.47;3.15;;;3.60;99.90;;;;;;4942382;28;20402;-66
2021/12/08 01:56:37;;;;;;;5.43;2.83;;;3.60;99.90;;;;;;4953404;28;20058;-65
2021/12/08 01:59:05;;;;;;;11.13;3.97;;;3.70;99.90;;;;;;4966556;28;20720;-65
2021/12/08 02:01:35;;;;;;;5.88;3.22;;;3.70;99.90;;;;;;4960204;28;20066;-65
2021/12/08 02:04:04;;;;;;;11.20;3.63;;;3.70;99.90;;;;;;4950265;28;20134;-65
2021/12/08 02:06:36;;;;;;;7.32;3.40;;;3.70;99.90;;;;;;4959385;28;20050;-65
2021/12/08 02:09:05;;;;;;;10.68;3.30;;;3.70;99.90;;;;;;4966310;28;20469;-65
2021/12/08 02:11:31;;;;;;;6.03;3.45;;;3.70;99.90;;;;;;4957493;28;20102;-65
2021/12/08 02:14:00;;;;;;;8.55;3.63;;;3.60;99.90;;;;;;4967049;28;20507;-65
2021/12/08 02:16:27;;;;;;;8.13;3.60;;;3.60;99.90;;;;;;4958854;28;20035;-65
2021/12/08 02:18:53;;;;;;;7.25;3.95;;;3.60;99.90;;;;;;4946142;28;20046;-65
2021/12/08 02:21:39;;;;;;;12.20;3.58;;;3.70;99.90;;;;;;4956652;28;20043;-65
2021/12/08 02:24:12;;;;;;;8.07;3.65;;;3.70;99.90;;;;;;4952998;28;20050;-65
2021/12/08 02:26:40;;;;;;;7.68;3.72;;;3.70;99.90;;;;;;4955114;28;20047;-64
2021/12/08 02:29:19;;;;;;;8.23;4.15;;;3.70;99.90;;;;;;4960334;28;20427;-65
2021/12/08 02:31:56;;;;;;;7.38;3.50;;;3.70;99.90;;;;;;4962259;28;20031;-65
2021/12/08 02:48:05;;;;;;;11.85;3.75;;;3.70;99.90;;;;;;4958811;28;20145;-64
2021/12/08 02:50:37;;;;;;;8.70;3.63;;;3.70;99.90;;;;;;4967256;28;20057;-64
2021/12/08 02:53:06;;;;;;;8.27;3.80;;;3.70;99.90;;;;;;4958411;28;20046;-64
2021/12/08 02:55:32;;;;;;;9.75;4.10;;;3.70;99.90;;;;;;4965401;28;20043;-64
2021/12/08 02:58:01;;;;;;;7.38;3.70;;;3.70;99.90;;;;;;4959534;28;20050;-64
2021/12/08 03:00:31;;;;;;;9.05;4.03;;;3.70;99.90;;;;;;4965591;28;20074;-64
2021/12/08 03:02:59;;;;;;;8.68;4.18;;;3.70;99.90;;;;;;4961594;28;20071;-65
2021/12/08 03:05:26;;;;;;;9.48;3.92;;;3.70;99.90;;;;;;4957917;28;20496;-64
2021/12/08 03:07:52;;;;;;;7.15;4.60;;;3.70;99.90;;;;;;4954930;28;20044;-65
2021/12/08 03:10:21;;;;;;;11.18;4.93;;;3.70;99.90;;;;;;4946317;28;20451;-65
2021/12/08 03:12:47;;;;;;;8.32;5.55;;;3.80;99.90;;;;;;4963608;28;20191;-65
2021/12/08 03:15:14;;;;;;;8.30;5.13;;;3.80;99.90;;;;;;4948112;28;20125;-64
2021/12/08 03:17:41;;;;;;;10.57;5.53;;;3.80;99.90;;;;;;4938000;28;20059;-64
2021/12/08 03:20:10;;;;;;;10.77;5.32;;;3.90;99.90;;;;;;4948950;28;20043;-64
2021/12/08 03:22:40;;;;;;;12.40;6.00;;;3.90;99.90;;;;;;4963295;28;20546;-64
2021/12/08 03:25:10;;;;;;;9.60;5.32;;;3.90;99.90;;;;;;4960434;28;20054;-65
2021/12/08 03:27:43;;;;;;;12.57;5.25;;;3.90;99.90;;;;;;4962793;28;20399;-65
2021/12/08 03:30:16;;;;;;;9.48;5.53;;;3.90;99.90;;;;;;4961619;28;20504;-65
2021/12/08 03:32:42;;;;;;;8.10;5.55;;;3.90;99.90;;;;;;4964972;28;20049;-65
2021/12/08 03:35:15;;;;;;;9.60;5.63;;;4.00;99.90;;;;;;4954551;28;20126;-65
2021/12/08 03:37:44;;;;;;;12.00;6.00;;;4.00;99.90;;;;;;4963559;28;20049;-65
2021/12/08 03:40:19;;;;;;;7.45;5.63;;;4.10;99.90;;;;;;4956334;28;20046;-65
2021/12/08 03:42:46;;;;;;;11.48;5.75;;;4.10;99.90;;;;;;4966466;28;20042;-65
2021/12/08 03:45:19;;;;;;;11.88;6.68;;;4.10;99.90;;;;;;4953876;28;20039;-65
2021/12/08 03:47:47;;;;;;;10.93;7.30;;;4.20;99.90;;;;;;4945615;28;20077;-65
2021/12/08 03:50:16;;;;;;;13.20;7.60;;;4.20;99.90;;;;;;4961926;28;20042;-65
2021/12/08 03:52:42;;;;;;;11.10;7.63;;;4.20;99.90;;;;;;4963698;28;20153;-65
2021/12/08 03:55:12;;;;;;;10.27;7.47;;;4.30;99.90;;;;;;4956379;28;20141;-65
2021/12/08 03:57:38;;;;;;;9.80;7.95;;;4.30;99.90;;;;;;4959069;28;20047;-65
2021/12/08 04:00:14;;;;;;;12.52;8.38;;;4.40;99.90;;;;;;4960460;28;20601;-65
2021/12/08 04:02:40;;;;;;;14.90;8.45;;;4.40;99.90;;;;;;4967682;28;20411;-65
2021/12/08 04:05:07;;;;;;;14.13;8.40;;;4.40;99.90;;;;;;4954488;28;20035;-65
2021/12/08 04:07:36;;;;;;;15.70;9.40;;;4.50;99.90;;;;;;4958216;28;20070;-65
2021/12/08 04:10:02;;;;;;;14.35;8.30;;;4.50;99.90;;;;;;4953657;28;20166;-65
2021/12/08 04:12:28;;;;;;;9.98;7.43;;;4.50;99.90;;;;;;4951619;28;20038;-65
2021/12/08 04:15:01;;;;;;;10.43;7.65;;;4.60;99.90;;;;;;4955388;28;20039;-65
2021/12/08 04:17:36;;;;;;;10.13;7.70;;;4.60;99.90;;;;;;4959437;28;20118;-64
2021/12/08 04:20:08;;;;;;;9.63;7.07;;;4.60;99.90;;;;;;4953353;28;20050;-64
2021/12/08 04:22:38;;;;;;;11.52;7.00;;;4.70;99.90;;;;;;4962639;28;20058;-64
2021/12/08 04:25:08;;;;;;;14.85;7.57;;;4.70;99.90;;;;;;4959946;28;20049;-64
2021/12/08 04:27:41;;;;;;;13.07;7.05;;;4.70;99.90;;;;;;4966241;28;20039;-65
2021/12/08 04:30:22;;;;;;;11.52;7.68;;;4.70;99.90;;;;;;4961547;28;20050;-65
2021/12/08 04:32:56;;;;;;;11.93;7.85;;;4.70;99.90;;;;;;4960261;28;20046;-65
2021/12/08 04:35:29;;;;;;;11.88;8.00;;;4.70;99.90;;;;;;4961024;28;20536;-65
2021/12/08 04:38:08;;;;;;;11.05;7.22;;;4.70;99.90;;;;;;4962398;28;20074;-65
2021/12/08 04:43:40;;;;;;;11.35;6.72;;;4.80;99.90;;;;;;4956335;28;20163;-65
2021/12/08 04:48:58;;;;;;;8.77;6.57;;;4.80;99.90;;;;;;4959248;28;20035;-65
2021/12/08 04:51:43;;;;;;;10.50;7.65;;;4.80;99.90;;;;;;4958200;28;20062;-65
2021/12/08 05:02:49;;;;;;;;;;;4.90;99.90;;;;;;4960468;28;20359;-65
2021/12/08 05:05:19;;;;;;;9.00;6.40;;;4.80;99.90;;;;;;4961363;28;20362;-65
2021/12/08 05:10:19;;;;;;;11.45;6.35;;;4.90;99.90;;;;;;4965579;28;20071;-65
2021/12/08 05:12:48;;;;;;;9.60;6.93;;;4.90;99.90;;;;;;4957438;28;20062;-65
2021/12/08 05:15:24;;;;;;;12.10;6.78;;;4.90;99.90;;;;;;4960353;28;20129;-65
2021/12/08 05:18:08;;;;;;;11.02;6.95;;;4.90;99.90;;;;;;4960294;28;20050;-65
2021/12/08 05:20:46;;;;;;;10.45;6.97;;;4.90;99.90;;;;;;4958095;28;20043;-65
2021/12/08 05:23:30;;;;;;;11.60;7.03;;;4.90;99.90;;;;;;4953617;28;20038;-65
2021/12/08 05:25:57;;;;;;;10.40;6.90;;;4.90;99.90;;;;;;4961360;28;20042;-65
2021/12/08 05:28:27;;;;;;;11.32;6.70;;;5.00;99.90;;;;;;4950901;28;20057;-65
2021/12/08 05:31:01;;;;;;;12.30;6.85;;;5.00;99.90;;;;;;4958577;28;20487;-64
2021/12/08 05:33:27;;;;;;;9.48;6.50;;;5.00;99.90;;;;;;4955279;28;20032;-65
2021/12/08 05:35:55;;;;;;;12.65;6.75;;;5.00;99.90;;;;;;4967374;28;20491;-65
2021/12/08 05:38:21;;;;;;;9.85;6.47;;;5.00;99.90;;;;;;4940639;28;20035;-65
2021/12/08 05:40:57;;;;;;;14.00;6.95;;;5.00;99.90;;;;;;4961672;28;20564;-65
2021/12/08 05:43:23;;;;;;;9.73;6.43;;;5.10;99.90;;;;;;4958483;28;23029;-65
2021/12/08 05:45:50;;;;;;;14.65;8.50;;;5.00;99.90;;;;;;4960776;28;20039;-65
2021/12/08 05:48:16;;;;;;;11.13;7.47;;;5.00;99.90;;;;;;4960697;28;20399;-65
2021/12/08 05:50:53;;;;;;;11.32;6.20;;;5.00;99.90;;;;;;4960628;28;20408;-65
2021/12/08 05:53:20;;;;;;;10.93;6.28;;;5.00;99.90;;;;;;4947796;28;20491;-65
2021/12/08 05:55:47;;;;;;;8.57;5.90;;;4.90;99.90;;;;;;4957135;28;20101;-65
2021/12/08 05:58:14;;;;;;;9.18;6.15;;;4.90;99.90;;;;;;4964043;28;20089;-65
2021/12/08 06:00:49;;;;;;;11.93;6.50;;;4.80;99.90;;;;;;4960153;28;20570;-65
2021/12/08 06:03:17;;;;;;;;;;;4.80;99.90;;;;;;4961192;28;20046;-65
2021/12/08 06:05:49;;;;;;;8.88;5.30;;;4.70;99.90;;;;;;4941225;28;19918;-65
2021/12/08 06:08:15;;;;;;;9.25;5.80;;;4.60;99.90;;;;;;4962742;28;20034;-65
2021/12/08 06:10:43;;;;;;;10.13;6.03;;;4.60;99.90;;;;;;4955386;28;20043;-65
2021/12/08 06:13:10;;;;;;;12.02;5.70;;;4.50;99.90;;;;;;4962829;28;20124;-65
2021/12/08 06:15:37;;;;;;;9.63;5.55;;;4.50;99.90;;;;;;4956265;28;20370;-65
2021/12/08 06:18:03;;;;;;;13.65;5.40;;;4.40;99.90;;;;;;4961755;28;20047;-65
2021/12/08 06:20:29;;;;;;;10.43;6.65;;;4.40;99.90;;;;;;4940402;28;20043;-65
2021/12/08 06:22:57;;;;;;;10.38;5.68;;;4.40;99.90;;;;;;4958585;28;20050;-65
2021/12/08 06:25:24;;;;;;;14.70;5.35;;;4.50;99.90;;;;;;4957374;28;20429;-65
2021/12/08 06:27:50;;;;;;;10.73;5.15;;;4.50;99.90;;;;;;4962747;28;20502;-65
2021/12/08 06:30:20;;;;;;;12.80;4.90;;;4.50;99.90;;;;;;4954920;28;20191;-65
2021/12/08 06:32:47;;;;;;;10.93;4.85;;;4.50;99.90;;;;;;4942226;28;20047;-65
2021/12/08 06:35:18;;;;;;;9.10;4.80;;;4.50;99.90;;;;;;4956976;28;20051;-65
2021/12/08 06:37:44;;;;;;;6.90;4.72;;;4.50;99.90;;;;;;4960716;28;20046;-65
2021/12/08 06:40:13;;;;;;;12.10;5.30;;;4.60;99.90;;;;;;4965579;28;20379;-65
2021/12/08 06:42:41;;;;;;;7.82;5.07;;;4.60;99.90;;;;;;4960785;28;20376;-65
2021/12/08 06:45:12;;;;;;;8.80;4.70;;;4.50;99.90;;;;;;4968482;28;20042;-65
2021/12/08 06:47:38;;;;;;;9.68;4.70;;;4.50;99.90;;;;;;4962059;28;20035;-65
2021/12/08 06:50:17;;;;;;;9.45;4.40;;;4.60;99.90;;;;;;4972426;28;20065;-65
2021/12/08 06:52:46;;;;;;;8.43;4.82;;;4.50;99.90;;;;;;4944001;28;20487;-65
2021/12/08 06:55:40;;;;;;;8.60;4.18;;;4.60;99.90;;;;;;4969033;28;20062;-65
2021/12/08 06:58:13;;;;;;;8.65;3.90;;;4.60;99.90;;;;;;4964555;28;20046;-65
2021/12/08 07:01:10;;;;;;;7.65;4.30;;;4.70;99.90;;;;;;4973790;28;20169;-65
2021/12/08 07:09:23;;;;;;;8.30;3.50;;;4.60;99.90;;;;;;4973718;28;20499;-65
2021/12/08 07:11:52;;;;;;;8.65;3.00;;;4.60;99.90;;;;;;4961571;28;20185;-65
2021/12/08 07:14:20;;;;;;;9.68;3.58;;;4.60;99.90;;;;;;4963576;28;20058;-65
2021/12/08 07:16:49;;;;;;;8.68;3.70;;;4.60;99.90;;;;;;4960112;28;20521;-65
2021/12/08 07:19:32;;;;;;;8.52;3.40;;;4.60;99.90;;;;;;4964828;28;20039;-64
2021/12/08 07:22:00;;;;;;;8.88;3.15;;;4.60;99.90;;;;;;4957108;28;20448;-65
2021/12/08 07:24:31;;;;;;;8.35;3.08;;;4.60;99.90;;;;;;4962804;28;20098;-65
2021/12/08 07:27:02;;;;;;;7.07;2.80;;;4.60;99.90;;;;;;4963358;28;20042;-65
2021/12/08 07:29:33;;;;;;;7.45;2.85;;;4.60;99.90;;;;;;4954361;28;20039;-65
2021/12/08 07:32:08;;;;;;;7.18;3.17;;;4.60;99.90;;;;;;4964833;28;20321;-64
2021/12/08 07:34:35;;;;;;;8.13;2.97;;;4.60;99.90;;;;;;4956014;28;20050;-64
2021/12/08 07:37:06;;;;;;;7.28;3.40;;;4.50;99.90;;;;;;4964672;28;20110;-65
2021/12/08 07:39:42;;;;;;;7.38;2.65;;;4.60;99.90;;;;;;4964473;28;20527;-65
2021/12/08 07:42:23;;;;;;;12.88;2.85;;;4.60;99.90;;;;;;4968068;28;20037;-65
2021/12/08 07:44:52;;;;;;;6.57;2.60;;;4.70;99.90;;;;;;4961464;28;20248;-65
2021/12/08 07:47:19;;;;;;;5.63;2.80;;;4.70;99.90;;;;;;4951375;28;20051;-65
2021/12/08 07:49:58;;;;;;;5.15;2.45;;;4.70;99.90;;;;;;4963274;28;20062;-65
2021/12/08 07:52:33;;;;;;;8.60;2.30;;;4.70;99.90;;;;;;4965292;28;20035;-64
2021/12/08 07:55:00;;;;;;;8.20;2.58;;;4.70;99.90;;;;;;4958473;28;20043;-65
2021/12/08 07:57:34;;;;;;;5.07;1.80;;;4.70;99.90;;;;;;4969309;28;20106;-64
2021/12/08 08:00:11;;;;;;;11.38;2.42;;;4.70;99.90;;;;;;4946310;28;20125;-64
2021/12/08 08:02:37;;;;;;;8.25;2.10;;;4.70;99.90;;;;;;4966536;28;20403;-65
2021/12/08 08:05:05;;;;;;;8.32;2.17;;;4.70;99.90;;;;;;4964592;28;20039;-64
2021/12/08 08:07:33;;;;;;;10.57;2.00;;;4.70;99.90;;;;;;4965383;28;20039;-65
2021/12/08 08:10:01;;;;;;;6.57;2.80;;;4.70;99.90;;;;;;4962778;28;20047;-65
2021/12/08 08:12:30;;;;;;;7.22;1.95;;;4.60;99.90;;;;;;4952711;28;20066;-64
2021/12/08 08:15:00;;;;;;;8.10;2.05;;;4.60;99.90;;;;;;4959982;28;20039;-64
2021/12/08 08:17:34;;;;;;;9.93;2.35;;;4.60;99.90;;;;;;4965048;28;20054;-65
2021/12/08 08:20:04;;;;;;;12.33;2.30;;;4.60;99.90;;;;;;4962436;28;20043;-64
2021/12/08 08:22:30;;;;;;;6.57;1.95;;;4.60;99.90;;;;;;4967866;28;20078;-64
2021/12/08 08:24:57;;;;;;;7.88;2.00;;;4.60;99.90;;;;;;4962458;28;20042;-65
2021/12/08 08:27:24;;;;;;;6.05;1.63;;;4.70;99.90;;;;;;4959308;28;20573;-65
2021/12/08 08:29:51;;;;;;;9.20;2.05;;;4.70;99.90;;;;;;4940293;28;20054;-65
2021/12/08 08:32:26;;;;;;;7.47;1.90;;;4.70;99.90;;;;;;4965412;28;20066;-65
2021/12/08 08:35:04;;;;;;;7.70;2.20;;;4.70;99.90;;;;;;4952888;28;20043;-65
2021/12/08 08:37:31;;;;;;;4.38;1.52;;;4.80;99.90;;;;;;4955528;28;20380;-65
2021/12/08 08:39:59;;;;;;;12.52;2.58;;;4.80;99.90;;;;;;4954050;28;20059;-65
2021/12/08 08:42:29;;;;;;;12.15;2.92;;;4.80;99.90;;;;;;4960896;28;20142;-65
2021/12/08 08:45:27;;;;;;;6.93;2.92;;;4.80;99.90;;;;;;4959647;28;20139;-65
2021/12/08 08:48:09;;;;;;;9.65;2.40;;;4.90;99.90;;;;;;4950155;28;20046;-65
2021/12/08 08:50:49;;;;;;;7.80;1.70;;;5.00;99.90;;;;;;4951608;28;20034;-64
2021/12/08 08:53:18;;;;;;;7.97;1.50;;;5.10;99.90;;;;;;4958607;28;20046;-65
2021/12/08 08:55:52;;;;;;;11.68;1.73;;;5.10;99.90;;;;;;4956899;28;20065;-65
2021/12/08 08:58:23;;;;;;;8.15;1.77;;;5.20;99.90;;;;;;4961644;28;20043;-65
2021/12/08 09:00:57;;;;;;;10.23;1.83;;;5.20;99.90;;;;;;4953041;28;23347;-65
2021/12/08 09:03:27;;;;;;;9.33;2.30;;;5.30;99.90;;;;;;4960575;28;20035;-65
2021/12/08 09:05:58;;;;;;;8.07;1.55;;;5.40;99.90;;;;;;4958129;28;20051;-65
2021/12/08 09:08:28;;;;;;;8.75;2.22;;;5.30;99.90;;;;;;4945970;28;20407;-65
2021/12/08 09:11:18;;;;;;;10.90;3.25;;;5.30;99.90;;;;;;4959691;28;20057;-65
2021/12/08 09:13:59;;;;;;;12.77;3.13;;;5.30;99.90;;;;;;4949407;28;20054;-65
2021/12/08 09:16:31;;;;;;;9.90;2.65;;;5.30;99.90;;;;;;4957205;28;20082;-65
2021/12/08 09:19:10;;;;;;;6.15;2.58;;;5.30;99.90;;;;;;4962910;28;20038;-65
2021/12/08 09:22:00;;;;;;;9.82;2.38;;;5.30;99.90;;;;;;4952561;28;20121;-64
2021/12/08 09:24:36;;;;;;;5.57;1.85;;;5.30;99.90;;;;;;4959645;28;20125;-64
2021/12/08 09:27:05;;;;;;;8.55;2.28;;;5.30;99.90;;;;;;4955714;28;22837;-65
2021/12/08 09:29:42;;;;;;;10.95;2.05;;;5.40;99.90;;;;;;4960201;28;20447;-65
2021/12/08 09:32:18;;;;;;;8.80;2.78;;;5.30;99.90;;;;;;4956531;28;20538;-65
2021/12/08 09:34:57;;;;;;;10.40;2.28;;;5.30;99.90;;;;;;4962754;28;20051;-64
2021/12/08 09:37:31;;;;;;;4.88;1.52;;;5.30;99.90;;;;;;4954460;28;20130;-65
2021/12/08 09:40:09;;;;;;;9.23;1.80;;;5.40;99.90;;;;;;4961484;28;20043;-64
2021/12/08 09:42:40;;;;;;;9.77;1.65;;;5.40;99.90;;;;;;4954747;28;20045;-64
2021/12/08 09:45:27;;;;;;;10.48;2.03;;;5.40;99.90;;;;;;4960862;28;20078;-64
2021/12/08 09:47:53;;;;;;;6.47;1.63;;;5.50;99.90;;;;;;4932513;28;20133;-64
2021/12/08 09:50:20;;;;;;;5.15;1.40;;;5.60;99.90;;;;;;4959729;28;20046;-64
2021/12/08 09:52:47;;;;;;;6.35;1.60;;;5.70;99.90;;;;;;4952797;28;20150;-65
2021/12/08 09:55:16;;;;;;;10.43;1.80;;;5.70;99.90;;;;;;4959628;28;20084;-65
2021/12/08 09:57:44;;;;;;;10.65;2.20;;;5.70;99.90;;;;;;4955974;28;20126;-65
2021/12/08 10:00:24;;;;;;;8.00;1.50;;;5.70;99.90;;;;;;4955970;28;20039;-65
2021/12/08 10:02:56;;;;;;;11.55;1.95;;;5.80;99.90;;;;;;4957030;28;20043;-65
2021/12/08 10:05:25;;;;;;;11.93;2.28;;;5.90;99.90;;;;;;4953347;28;20046;-65
2021/12/08 10:07:51;;;;;;;12.77;2.47;;;6.00;99.90;;;;;;4939222;28;20047;-65
2021/12/08 10:10:17;;;;;;;6.38;1.90;;;6.00;99.90;;;;;;4957032;28;20039;-65
2021/12/08 10:12:43;;;;;;;6.22;2.05;;;6.00;99.90;;;;;;4958478;28;20047;-65
2021/12/08 10:15:15;;;;;;;7.80;1.90;;;6.00;99.90;;;;;;4954057;28;20653;-65
2021/12/08 10:17:41;;;;;;;8.20;1.80;;;6.00;99.90;;;;;;4945118;28;20511;-65
2021/12/08 10:20:17;;;;;;;14.27;1.98;;;6.00;99.90;;;;;;4958864;28;20407;-65
2021/12/08 10:22:46;;;;;;;5.70;2.33;;;6.00;99.90;;;;;;4961137;28;20257;-65
2021/12/08 10:25:16;;;;;;;10.45;1.95;;;6.00;99.90;;;;;;4958969;28;20067;-65
2021/12/08 10:28:05;;;;;;;9.23;1.73;;;6.00;99.90;;;;;;4966795;28;20471;-65
2021/12/08 10:30:55;;;;;;;11.68;2.83;;;6.10;99.90;;;;;;4958889;28;20571;-65
2021/12/08 10:39:26;;;;;;;9.93;1.83;;;6.00;99.90;;;;;;4945808;28;20540;-64
2021/12/08 10:42:13;;;;;;;10.68;1.98;;;6.00;99.90;;;;;;4953300;28;20407;-65
2021/12/08 10:47:36;;;;;;;12.48;2.03;;;6.00;99.90;;;;;;4968778;28;20179;-65
2021/12/08 10:56:14;;;;;;;9.60;2.00;;;5.90;99.90;;;;;;4959758;28;20101;-65
2021/12/08 10:58:53;;;;;;;8.93;2.25;;;5.80;99.90;;;;;;4965362;28;20035;-65
2021/12/08 11:01:22;;;;;;;11.52;3.70;;;5.90;99.90;;;;;;4960422;28;20074;-65
2021/12/08 11:03:57;;;;;;;18.85;5.10;;;5.90;99.90;;;;;;4967489;28;20070;-65
2021/12/08 11:06:23;;;;;;;12.75;3.72;;;5.90;99.90;;;;;;4960821;28;20572;-65
2021/12/08 11:08:53;;;;;;;8.43;3.08;;;6.00;99.90;;;;;;4948770;28;20553;-65
2021/12/08 11:11:29;;;;;;;13.05;3.30;;;6.10;99.90;;;;;;4958802;28;20039;-65
2021/12/08 11:14:01;;;;;;;9.68;2.38;;;6.20;99.90;;;;;;4967145;28;20054;-65
2021/12/08 11:16:38;;;;;;;8.15;2.47;;;6.20;99.90;;;;;;4940160;28;20503;-65
2021/12/08 11:19:06;;;;;;;8.05;1.80;;;6.30;99.90;;;;;;4963947;28;20075;-65
2021/12/08 11:21:37;;;;;;;11.82;2.17;;;6.40;99.90;;;;;;4955152;28;20043;-65
2021/12/08 11:24:19;;;;;;;10.43;1.85;;;6.30;99.90;;;;;;4963394;28;20058;-65
2021/12/08 11:26:51;;;;;;;10.13;2.33;;;6.30;99.90;;;;;;4956177;28;20054;-65
2021/12/08 11:29:21;;;;;;;7.47;2.10;;;6.30;99.90;;;;;;4943232;28;20046;-65
2021/12/08 11:32:05;;;;;;;10.10;2.15;;;6.30;99.90;;;;;;4955927;28;20047;-65
2021/12/08 11:34:38;;;;;;;9.00;1.95;;;6.30;99.90;;;;;;4961958;28;20054;-65
2021/12/08 11:37:08;;;;;;;8.65;1.80;;;6.20;99.90;;;;;;4955258;28;20050;-65
2021/12/08 11:39:38;;;;;;;6.30;1.80;;;6.20;99.90;;;;;;4961753;28;20042;-65
2021/12/08 11:42:12;;;;;;;9.15;1.92;;;6.20;99.90;;;;;;4959107;28;20133;-65
2021/12/08 11:44:41;;;;;;;7.95;2.00;;;6.20;99.90;;;;;;4967803;28;20194;-65
2021/12/08 11:47:10;;;;;;;7.15;1.83;;;6.20;99.90;;;;;;4962806;28;20031;-65
2021/12/08 11:49:45;;;;;;;7.85;1.75;;;6.10;99.90;;;;;;4942342;28;20054;-65
2021/12/08 11:52:18;;;;;;;7.15;2.10;;;6.10;99.90;;;;;;4963292;28;20070;-65
2021/12/08 11:55:06;;;;;;;6.57;2.03;;;6.10;99.90;;;;;;4940358;28;20129;-64
2021/12/08 11:57:39;;;;;;;7.20;2.17;;;6.10;99.90;;;;;;4944205;28;20077;-65
2021/12/08 12:00:19;;;;;;;8.13;2.30;;;6.00;99.90;;;;;;4965413;28;20089;-65
2021/12/08 12:02:55;;;;;;;7.88;2.50;;;6.00;99.90;;;;;;4957151;28;20217;-65
2021/12/08 12:05:30;;;;;;;6.90;2.47;;;6.00;99.90;;;;;;4960714;28;20050;-65
2021/12/08 12:07:56;;;;;;;8.32;2.35;;;6.00;99.90;;;;;;4963004;28;20043;-66
2021/12/08 12:10:26;;;;;;;9.50;2.08;;;5.90;99.90;;;;;;4942938;28;20106;-65
2021/12/08 12:12:51;;;;;;;11.75;3.05;;;6.00;99.90;;;;;;4961819;28;20670;-65
2021/12/08 12:15:19;;;;;;;7.82;2.60;;;6.00;99.90;;;;;;4957722;28;20049;-65
2021/12/08 12:17:47;;;;;;;10.63;2.50;;;6.00;99.90;;;;;;4965283;28;20125;-65
2021/12/08 12:20:24;;;;;;;7.55;2.20;;;6.00;99.90;;;;;;4958705;28;20054;-65
2021/12/08 12:23:12;;;;;;;7.57;2.17;;;6.00;99.90;;;;;;4945625;28;20105;-65
2021/12/08 12:26:01;;;;;;;9.63;2.05;;;6.00;99.90;;;;;;4954884;28;20090;-65
2021/12/08 12:28:51;;;;;;;7.20;1.98;;;6.00;99.90;;;;;;4967661;28;20042;-65
2021/12/08 12:31:43;;;;;;;6.38;1.85;;;6.00;99.90;;;;;;4949449;28;20061;-65
2021/12/08 12:34:24;;;;;;;9.35;2.60;;;6.00;99.90;;;;;;4957570;28;20244;-65
2021/12/08 12:36:50;;;;;;;8.48;2.40;;;6.00;99.90;;;;;;4960137;28;20046;-65
2021/12/08 12:39:23;;;;;;;10.07;2.28;;;6.00;99.90;;;;;;4940509;28;20507;-65
2021/12/08 12:42:19;;;;;;;6.82;2.05;;;6.00;99.90;;;;;;4960018;28;20039;-65
2021/12/08 12:45:07;;;;;;;7.93;2.25;;;6.00;99.90;;;;;;4941733;28;20519;-65
2021/12/08 12:47:33;;;;;;;8.18;1.95;;;5.90;99.90;;;;;;4946791;28;20051;-65
2021/12/08 12:50:14;;;;;;;11.30;2.25;;;6.00;99.90;;;;;;4953548;28;20276;-65
2021/12/08 12:52:43;;;;;;;8.60;2.15;;;5.90;99.90;;;;;;4958469;28;20459;-65
2021/12/08 12:55:11;;;;;;;8.73;1.90;;;6.00;99.90;;;;;;4952980;28;20363;-65
2021/12/08 12:58:05;;;;;;;7.70;1.70;;;6.00;99.90;;;;;;4962303;28;20070;-65
2021/12/08 13:00:34;;;;;;;8.18;2.20;;;6.20;99.90;;;;;;4953108;28;20538;-65
2021/12/08 13:03:01;;;;;;;8.73;2.00;;;6.10;99.90;;;;;;4956464;28;20519;-65
2021/12/08 13:05:47;;;;;;;7.50;1.77;;;6.20;99.90;;;;;;4956704;28;25645;-65
2021/12/08 13:08:27;;;;;;;7.18;1.70;;;6.20;99.90;;;;;;4950196;28;20057;-65
2021/12/08 13:10:55;;;;;;;7.95;1.60;;;6.20;99.90;;;;;;4954227;28;20657;-65
2021/12/08 13:13:21;;;;;;;6.82;1.63;;;6.20;99.90;;;;;;4963834;28;20579;-65
2021/12/08 13:15:47;;;;;;;9.27;1.73;;;6.10;99.90;;;;;;4954185;28;20051;-65
2021/12/08 13:18:18;;;;;;;9.07;1.52;;;6.10;99.90;;;;;;4943580;28;20525;-65
2021/12/08 13:20:54;;;;;;;6.22;1.65;;;6.10;99.90;;;;;;4958166;28;20549;-65
2021/12/08 13:23:23;;;;;;;5.72;1.50;;;6.10;99.90;;;;;;4963306;28;20092;-65
2021/12/08 13:28:32;;;;;;;6.75;1.95;;;6.10;99.90;;;;;;4960113;28;20616;-65
2021/12/08 13:34:05;;;;;;;9.70;1.52;;;6.10;99.90;;;;;;4961973;28;20074;-65
2021/12/08 13:36:51;;;;;;;5.88;1.42;;;6.10;99.90;;;;;;4950573;28;20051;-65
2021/12/08 13:39:30;;;;;;;8.07;2.08;;;6.10;99.90;;;;;;4962354;28;20197;-65
2021/12/08 13:42:08;;;;;;;6.13;1.75;;;6.10;99.90;;;;;;4955421;28;20071;-65
2021/12/08 13:44:50;;;;;;;7.38;2.17;;;6.10;99.90;;;;;;4959742;28;20046;-65
2021/12/08 13:47:35;;;;;;;8.57;2.00;;;6.10;99.90;;;;;;4959148;28;20503;-65
2021/12/08 13:50:06;;;;;;;7.43;1.67;;;6.10;99.90;;;;;;4964290;28;20055;-64
2021/12/08 13:52:35;;;;;;;4.22;1.38;;;6.10;99.90;;;;;;4942178;28;20046;-65
2021/12/08 13:55:14;;;;;;;7.18;2.50;;;6.10;99.90;;;;;;4969087;28;20492;-65
2021/12/08 13:57:50;;;;;;;13.00;3.08;;;6.10;99.90;;;;;;4960472;28;20054;-65
2021/12/08 14:00:15;;;;;;;4.78;1.80;;;6.00;99.90;;;;;;4962355;28;20462;-65
2021/12/08 14:02:43;;;;;;;10.05;2.67;;;5.90;99.90;;;;;;4959009;28;20047;-65
2021/12/08 14:05:16;;;;;;;11.63;2.10;;;5.90;99.90;;;;;;4964624;28;20400;-65
2021/12/08 14:07:47;;;;;;;6.47;2.13;;;5.90;99.90;;;;;;4961150;28;20054;-65
2021/12/08 14:10:16;;;;;;;7.35;2.28;;;5.90;99.90;;;;;;4971718;28;20047;-65
2021/12/08 14:12:46;;;;;;;7.03;2.20;;;5.90;99.90;;;;;;4965015;28;20051;-65
2021/12/08 14:15:31;;;;;;;8.75;1.83;;;5.90;99.90;;;;;;4962306;28;20103;-65
2021/12/08 14:18:29;;;;;;;7.50;1.63;;;5.90;99.90;;;;;;4966415;28;20424;-65